TimeEDT,TemperatureF,Dew PointF,Humidity,Sea Level PressureIn,VisibilityMPH,Wind Direction,Wind SpeedMPH,Gust SpeedMPH,PrecipitationIn,Events,Conditions,WindDirDegrees,DateUTC
12:15 AM,49.1,47.8,95,30.02,7.0,Calm,Calm,-,N/A,,Clear,0,2013-10-22 04:15:00
12:35 AM,48.7,47.5,95,30.01,7.0,Calm,Calm,-,N/A,,Clear,0,2013-10-22 04:35:00
12:55 AM,48.6,47.3,95,30.00,7.0,Calm,Calm,-,N/A,,Clear,0,2013-10-22 04:55:00
1:15 AM,48.6,47.3,95,30.00,7.0,Calm,Calm,-,N/A,,Clear,0,2013-10-22 05:15:00
1:35 AM,48.2,46.8,95,30.00,7.0,Calm,Calm,-,N/A,,Clear,0,2013-10-22 05:35:00
1:55 AM,48.4,46.9,95,30.01,10.0,Calm,Calm,-,N/A,,Clear,0,2013-10-22 05:55:00
2:15 AM,48.2,46.8,95,30.01,7.0,Calm,Calm,-,N/A,,Clear,0,2013-10-22 06:15:00
2:35 AM,48.7,47.3,95,30.00,10.0,Calm,Calm,-,N/A,,Clear,0,2013-10-22 06:35:00
2:55 AM,48.2,46.6,94,30.00,10.0,Calm,Calm,-,N/A,,Clear,0,2013-10-22 06:55:00
3:15 AM,48.7,47.3,95,29.98,10.0,Calm,Calm,-,N/A,,Clear,0,2013-10-22 07:15:00
3:35 AM,48.6,47.3,95,29.98,10.0,Calm,Calm,-,N/A,,Clear,0,2013-10-22 07:35:00
3:55 AM,47.8,46.4,95,29.98,10.0,Calm,Calm,-,N/A,,Clear,0,2013-10-22 07:55:00
4:15 AM,47.7,46.4,95,29.97,10.0,Calm,Calm,-,N/A,,Clear,0,2013-10-22 08:15:00
4:35 AM,47.3,45.7,94,29.97,10.0,Calm,Calm,-,N/A,,Clear,0,2013-10-22 08:35:00
4:55 AM,47.3,46.0,95,29.97,10.0,Calm,Calm,-,N/A,,Clear,0,2013-10-22 08:55:00
5:15 AM,47.7,46.4,95,29.97,10.0,Calm,Calm,-,N/A,,Clear,0,2013-10-22 09:15:00
5:35 AM,48.2,46.4,93,29.98,10.0,Calm,Calm,-,N/A,,Clear,0,2013-10-22 09:35:00
5:55 AM,49.8,45.9,86,29.97,10.0,Calm,Calm,-,N/A,,Clear,0,2013-10-22 09:55:00
6:15 AM,47.5,45.1,92,29.97,10.0,Calm,Calm,-,N/A,,Clear,0,2013-10-22 10:15:00
6:35 AM,48.7,46.4,92,29.96,10.0,Calm,Calm,-,N/A,,Clear,0,2013-10-22 10:35:00
6:55 AM,48.9,46.4,91,29.95,10.0,Calm,Calm,-,N/A,,Clear,0,2013-10-22 10:55:00
7:15 AM,49.1,46.8,92,29.95,10.0,Calm,Calm,-,N/A,,Clear,0,2013-10-22 11:15:00
7:35 AM,49.1,47.3,93,29.95,10.0,Calm,Calm,-,N/A,,Clear,0,2013-10-22 11:35:00
7:55 AM,49.3,46.9,92,29.94,10.0,Calm,Calm,-,N/A,,Clear,0,2013-10-22 11:55:00
8:15 AM,49.6,47.7,93,29.93,10.0,Calm,Calm,-,N/A,,Clear,0,2013-10-22 12:15:00
8:35 AM,50.7,48.7,93,29.93,10.0,Calm,Calm,-,N/A,,Clear,0,2013-10-22 12:35:00
8:55 AM,51.8,49.5,92,29.94,10.0,Calm,Calm,-,N/A,,Clear,0,2013-10-22 12:55:00
9:15 AM,52.9,49.8,89,29.95,10.0,Calm,Calm,-,N/A,,Clear,0,2013-10-22 13:15:00
9:35 AM,54.1,50.0,86,29.96,10.0,Calm,Calm,-,N/A,,Clear,0,2013-10-22 13:35:00
9:55 AM,54.9,51.1,87,29.96,10.0,Calm,Calm,-,N/A,,Clear,0,2013-10-22 13:55:00
10:15 AM,55.6,51.3,85,29.96,10.0,Calm,Calm,-,N/A,,Clear,0,2013-10-22 14:15:00
10:35 AM,56.3,51.6,84,29.97,10.0,Calm,Calm,-,N/A,,Clear,0,2013-10-22 14:35:00
10:55 AM,57.2,51.8,82,29.96,10.0,Calm,Calm,-,N/A,,Clear,0,2013-10-22 14:55:00
11:15 AM,58.5,52.5,81,29.95,10.0,Calm,Calm,-,N/A,,Clear,0,2013-10-22 15:15:00
11:35 AM,59.9,53.2,79,29.94,10.0,Calm,Calm,-,N/A,,Clear,0,2013-10-22 15:35:00
11:55 AM,61.5,53.4,75,29.93,10.0,Calm,Calm,-,N/A,,Clear,0,2013-10-22 15:55:00
12:15 PM,62.6,54.1,74,29.91,10.0,Calm,Calm,-,N/A,,Clear,0,2013-10-22 16:15:00
12:35 PM,62.6,55.0,76,29.91,10.0,Calm,Calm,-,N/A,,Scattered Clouds,0,2013-10-22 16:35:00
12:55 PM,62.6,54.7,75,29.90,10.0,Calm,Calm,-,N/A,,Mostly Cloudy,0,2013-10-22 16:55:00
1:15 PM,63.1,54.9,74,29.89,10.0,Calm,Calm,-,N/A,,Scattered Clouds,0,2013-10-22 17:15:00
1:35 PM,63.7,55.6,75,29.88,10.0,Calm,Calm,-,N/A,,Clear,0,2013-10-22 17:35:00
1:55 PM,63.5,56.1,77,29.89,10.0,Calm,Calm,-,N/A,,Clear,0,2013-10-22 17:55:00
2:15 PM,63.3,56.3,78,29.87,10.0,Calm,Calm,-,N/A,,Clear,0,2013-10-22 18:15:00
2:35 PM,64.4,56.3,75,29.87,10.0,Calm,Calm,-,N/A,,Clear,0,2013-10-22 18:35:00
2:55 PM,65.5,56.3,72,29.86,10.0,Calm,Calm,-,N/A,,Clear,0,2013-10-22 18:55:00
3:15 PM,65.5,55.9,71,29.85,10.0,Calm,Calm,-,N/A,,Clear,0,2013-10-22 19:15:00
3:35 PM,65.3,56.3,73,29.87,10.0,Calm,Calm,-,N/A,,Scattered Clouds,0,2013-10-22 19:35:00
3:55 PM,65.5,56.5,73,29.87,10.0,Calm,Calm,-,N/A,,Mostly Cloudy,0,2013-10-22 19:55:00
4:15 PM,65.1,57.0,75,29.87,10.0,Calm,Calm,-,N/A,,Mostly Cloudy,0,2013-10-22 20:15:00
4:35 PM,64.8,57.0,76,29.86,10.0,Calm,Calm,-,N/A,,Mostly Cloudy,0,2013-10-22 20:35:00
4:55 PM,64.0,57.4,79,29.86,10.0,Calm,Calm,-,N/A,,Scattered Clouds,0,2013-10-22 20:55:00
5:15 PM,63.3,57.6,81,29.86,10.0,Calm,Calm,-,N/A,,Mostly Cloudy,0,2013-10-22 21:15:00
5:35 PM,62.8,57.4,82,29.86,10.0,South,3.5,-,N/A,,Mostly Cloudy,180,2013-10-22 21:35:00
5:55 PM,62.2,57.2,84,29.86,10.0,Calm,Calm,-,N/A,,Mostly Cloudy,0,2013-10-22 21:55:00
6:15 PM,61.7,57.2,85,29.86,10.0,Calm,Calm,-,N/A,,Overcast,0,2013-10-22 22:15:00
6:35 PM,61.3,57.2,86,29.86,10.0,Calm,Calm,-,N/A,,Overcast,0,2013-10-22 22:35:00
6:55 PM,61.0,57.2,87,29.85,10.0,Calm,Calm,-,N/A,,Overcast,0,2013-10-22 22:55:00
7:15 PM,60.6,57.2,88,29.85,10.0,South,3.5,-,N/A,,Overcast,180,2013-10-22 23:15:00
7:35 PM,60.4,57.4,90,29.86,10.0,Calm,Calm,-,N/A,,Overcast,0,2013-10-22 23:35:00
7:55 PM,59.9,57.2,91,29.86,10.0,Calm,Calm,-,N/A,,Overcast,0,2013-10-22 23:55:00
8:15 PM,59.7,56.8,90,29.86,10.0,South,3.5,-,N/A,,Overcast,180,2013-10-23 00:15:00
8:35 PM,59.4,56.8,91,29.86,10.0,Calm,Calm,-,N/A,,Mostly Cloudy,0,2013-10-23 00:35:00
8:55 PM,59.2,56.7,91,29.86,10.0,South,3.5,-,N/A,,Mostly Cloudy,180,2013-10-23 00:55:00
9:15 PM,59.0,56.7,92,29.85,10.0,South,5.8,-,N/A,,Mostly Cloudy,180,2013-10-23 01:15:00
9:35 PM,59.2,56.5,91,29.86,10.0,Calm,Calm,-,N/A,,Mostly Cloudy,0,2013-10-23 01:35:00
9:55 PM,59.2,56.3,90,29.86,10.0,Calm,Calm,-,N/A,,Mostly Cloudy,0,2013-10-23 01:55:00
10:35 PM,58.1,55.6,91,29.85,7.0,Calm,Calm,-,N/A,,Scattered Clouds,0,2013-10-23 02:35:00
11:15 PM,57.0,55.2,94,29.84,5.0,Calm,Calm,-,N/A,,Mostly Cloudy,0,2013-10-23 03:15:00
11:35 PM,56.5,54.9,94,29.83,5.0,Calm,Calm,-,N/A,,Scattered Clouds,0,2013-10-23 03:35:00
11:55 PM,56.8,55.4,95,29.82,4.0,Calm,Calm,-,N/A,,Clear,0,2013-10-23 03:55:00